Time;durP1;ratioP1;P1;durP2;ratioP2;P2;SDS_P1;SDS_P2;PMS_P1;PMS_P2;Temp;Humidity;BMP_temperature;BMP_pressure;BME280_temperature;BME280_humidity;BME280_pressure;Samples;Min_cycle;Max_cycle;Signal;HPM_P1;HPM_P2
2022/01/18 00:01:12;;;;;;;;;;;4.10;99.90;;;;;;5124416;27;20328;-71
2022/01/18 00:03:38;;;;;;;;;;;4.10;99.90;;;;;;5130392;27;20396;-72
2022/01/18 00:06:04;;;;;;;;;;;4.20;99.90;;;;;;5129035;27;19998;-71
2022/01/18 00:08:29;;;;;;;;;;;4.20;99.90;;;;;;5123867;27;19916;-72
2022/01/18 00:10:55;;;;;;;;;;;4.20;99.90;;;;;;5124287;27;19915;-71
2022/01/18 00:16:09;;;;;;;;;;;4.10;99.90;;;;;;5130159;27;19970;-70
2022/01/18 00:18:36;;;;;;;;;;;4.10;99.90;;;;;;5122084;27;20455;-70
2022/01/18 00:23:32;;;;;;;;;;;4.10;99.90;;;;;;5120340;27;19911;-72
2022/01/18 00:25:58;;;;;;;;;;;4.10;99.90;;;;;;5125281;27;19912;-71
2022/01/18 00:28:25;;;;;;;;;;;4.10;99.90;;;;;;5125927;27;19915;-71
2022/01/18 00:33:22;;;;;;;;;;;3.90;99.90;;;;;;5127145;27;19919;-73
2022/01/18 00:35:57;;;;;;;;;;;4.00;99.90;;;;;;5129168;27;19912;-72
2022/01/18 00:38:32;;;;;;;;;;;4.10;99.90;;;;;;5130044;27;19911;-72
2022/01/18 00:40:59;;;;;;;;;;;4.00;99.90;;;;;;5124716;27;19920;-71
2022/01/18 00:43:25;;;;;;;;;;;4.00;99.90;;;;;;5125935;27;19989;-69
2022/01/18 00:45:50;;;;;;;;;;;4.00;99.90;;;;;;5129092;27;20334;-72
2022/01/18 00:48:17;;;;;;;;;;;4.00;99.90;;;;;;5128022;27;19915;-72
2022/01/18 00:50:44;;;;;;;;;;;4.00;99.90;;;;;;5126953;27;19987;-71
2022/01/18 00:53:13;;;;;;;;;;;3.90;99.90;;;;;;5115784;27;20322;-72
2022/01/18 00:55:49;;;;;;;;;;;3.90;99.90;;;;;;5126206;27;19924;-70
2022/01/18 00:58:15;;;;;;;;;;;3.90;99.90;;;;;;5129017;27;19919;-71
2022/01/18 01:00:41;;;;;;;;;;;4.00;99.90;;;;;;5126561;27;20010;-70
2022/01/18 01:03:07;;;;;;;;;;;4.00;99.90;;;;;;5124161;27;20293;-71
2022/01/18 01:05:32;;;;;;;;;;;4.00;99.90;;;;;;5128598;27;19984;-72
2022/01/18 01:07:58;;;;;;;;;;;4.00;99.90;;;;;;5121916;27;19919;-72
2022/01/18 01:10:23;;;;;;;;;;;4.00;99.90;;;;;;5117653;27;19947;-72
2022/01/18 01:12:49;;;;;;;;;;;4.00;99.90;;;;;;5124526;27;19912;-72
2022/01/18 01:15:18;;;;;;;;;;;3.90;99.90;;;;;;5118290;27;19945;-72
2022/01/18 01:17:54;;;;;;;;;;;3.90;99.90;;;;;;5120385;27;19912;-71
2022/01/18 01:34:59;;;;;;;;;;;4.10;99.90;;;;;;5118491;27;20002;-73
2022/01/18 01:43:21;;;;;;;;;;;4.40;99.90;;;;;;5118266;27;20319;-72
2022/01/18 01:45:48;;;;;;;;;;;4.50;99.90;;;;;;5126658;27;19911;-71
2022/01/18 01:48:14;;;;;;;;;;;4.60;99.90;;;;;;5127147;27;19920;-73
2022/01/18 01:50:47;;;;;;;;;;;4.70;99.90;;;;;;5123849;27;19922;-71
2022/01/18 01:53:14;;;;;;;;;;;4.80;99.90;;;;;;5124802;27;19998;-73
2022/01/18 01:55:39;;;;;;;;;;;5.00;99.90;;;;;;5129220;27;19962;-71
2022/01/18 01:58:05;;;;;;;;;;;5.20;99.90;;;;;;5114205;27;20491;-72
2022/01/18 02:00:31;;;;;;;;;;;5.30;99.90;;;;;;5122272;27;20353;-71
2022/01/18 02:02:57;;;;;;;;;;;5.40;99.90;;;;;;5128029;27;20010;-72
2022/01/18 02:05:23;;;;;;;;;;;5.70;99.90;;;;;;5121274;27;19969;-70
2022/01/18 02:07:49;;;;;;;;;;;5.90;99.90;;;;;;5125808;27;20381;-71
2022/01/18 02:10:14;;;;;;;;;;;6.10;99.90;;;;;;5130102;27;19914;-72
2022/01/18 02:12:40;;;;;;;;;;;6.20;99.90;;;;;;5120998;27;20300;-71
2022/01/18 02:15:25;;;;;;;;;;;6.60;99.90;;;;;;5124559;27;19922;-73
2022/01/18 02:23:21;;;;;;;;;;;7.10;99.90;;;;;;5120629;27;19918;-71
2022/01/18 02:25:47;;;;;;;;;;;6.90;99.90;;;;;;5127091;27;19911;-71
2022/01/18 02:28:14;;;;;;;;;;;6.80;99.90;;;;;;5127379;27;19939;-73
2022/01/18 02:30:40;;;;;;;;;;;6.70;99.90;;;;;;5126075;27;19919;-72
2022/01/18 02:33:05;;;;;;;;;;;6.60;99.90;;;;;;5124294;27;19916;-69
2022/01/18 02:35:32;;;;;;;;;;;6.60;99.90;;;;;;5128643;27;20429;-72
2022/01/18 02:37:57;;;;;;;;;;;6.50;99.90;;;;;;5127728;27;19911;-71
2022/01/18 02:40:24;;;;;;;;;;;6.40;99.90;;;;;;5129157;27;19995;-71
2022/01/18 02:42:57;;;;;;;;;;;6.30;99.90;;;;;;5115562;27;20493;-72
2022/01/18 02:45:23;;;;;;;;;;;6.30;99.90;;;;;;5127910;27;19911;-72
2022/01/18 02:47:50;;;;;;;;;;;6.30;99.90;;;;;;5120876;27;19927;-72
2022/01/18 02:50:20;;;;;;;;;;;6.20;99.90;;;;;;5126577;27;19922;-72
2022/01/18 02:52:46;;;;;;;;;;;6.20;99.90;;;;;;5118835;27;19926;-71
2022/01/18 02:55:11;;;;;;;;;;;6.20;99.90;;;;;;5127186;27;19911;-71
2022/01/18 02:57:52;;;;;;;;;;;6.20;99.90;;;;;;5121206;27;21867;-73
2022/01/18 03:00:26;;;;;;;;;;;6.20;99.90;;;;;;5120833;27;19919;-72
2022/01/18 03:03:13;;;;;;;;;;;6.20;99.90;;;;;;5117127;27;19930;-72
2022/01/18 03:05:42;;;;;;;;;;;6.20;99.90;;;;;;5121594;27;19919;-69
2022/01/18 03:08:10;;;;;;;;;;;6.20;99.90;;;;;;5124995;27;19922;-72
2022/01/18 03:10:36;;;;;;;;;;;6.20;99.90;;;;;;5128367;28;20361;-72
2022/01/18 03:13:02;;;;;;;;;;;6.20;99.90;;;;;;5115273;27;19919;-72
2022/01/18 03:15:27;;;;;;;;;;;6.20;99.90;;;;;;5126579;27;20287;-70
2022/01/18 03:17:53;;;;;;;;;;;6.20;99.90;;;;;;5123422;28;19937;-72
2022/01/18 03:20:20;;;;;;;;;;;6.20;99.90;;;;;;5129477;27;19911;-71
2022/01/18 03:22:48;;;;;;;;;;;6.20;99.90;;;;;;5120502;27;20139;-71
2022/01/18 03:25:27;;;;;;;;;;;6.10;99.90;;;;;;5120951;27;19916;-70
2022/01/18 03:28:05;;;;;;;;;;;6.20;99.90;;;;;;5122193;28;19919;-71
2022/01/18 03:30:34;;;;;;;;;;;6.30;99.90;;;;;;5123499;27;20524;-72
2022/01/18 03:33:00;;;;;;;;;;;6.30;99.90;;;;;;5129944;27;19918;-72
2022/01/18 03:35:26;;;;;;;;;;;6.40;99.90;;;;;;5131239;27;19928;-71
2022/01/18 03:37:52;;;;;;;;;;;6.40;99.90;;;;;;5122819;27;19912;-70
2022/01/18 03:40:17;;;;;;;;;;;6.50;99.90;;;;;;5133223;27;20400;-71
2022/01/18 03:42:45;;;;;;;;;;;6.50;99.90;;;;;;5125634;27;19985;-71
2022/01/18 03:45:15;;;;;;;;;;;6.50;99.90;;;;;;5132279;27;20323;-70
2022/01/18 03:47:42;;;;;;;;;;;6.60;99.90;;;;;;5128067;27;20280;-71
2022/01/18 03:50:09;;;;;;;;;;;6.60;99.90;;;;;;5126438;27;19911;-72
2022/01/18 03:52:38;;;;;;;;;;;6.60;99.90;;;;;;5127910;27;20007;-71
2022/01/18 03:55:05;;;;;;;;;;;6.50;99.90;;;;;;5128389;27;20324;-73
2022/01/18 03:57:30;;;;;;;;;;;6.50;99.90;;;;;;5124739;27;19959;-73
2022/01/18 03:59:56;;;;;;;;;;;6.40;99.90;;;;;;5120234;27;19977;-71
2022/01/18 04:02:22;;;;;;;;;;;6.50;99.90;;;;;;5123565;27;19939;-72
2022/01/18 04:04:48;;;;;;;;;;;6.50;99.90;;;;;;5121379;27;19919;-72
2022/01/18 04:07:14;;;;;;;;;;;6.50;99.90;;;;;;5119722;27;19912;-73
2022/01/18 04:09:49;;;;;;;;;;;6.40;99.90;;;;;;5127202;27;19915;-74
2022/01/18 04:12:21;;;;;;;;;;;6.40;99.90;;;;;;5128773;27;19912;-72
2022/01/18 04:14:47;;;;;;;;;;;6.30;99.90;;;;;;5117203;27;19918;-73
2022/01/18 04:28:25;;;;;;;;;;;6.10;99.90;;;;;;5128696;27;20425;-71
2022/01/18 04:30:51;;;;;;;;;;;6.10;99.90;;;;;;5125626;27;19911;-70
2022/01/18 04:33:17;;;;;;;;;;;5.90;99.90;;;;;;5122295;27;19918;-72
2022/01/18 04:35:42;;;;;;;;;;;5.90;99.90;;;;;;5127263;27;20047;-73
2022/01/18 04:38:08;;;;;;;;;;;5.90;99.90;;;;;;5131815;27;20028;-72
2022/01/18 04:40:36;;;;;;;;;;;5.80;99.90;;;;;;5130846;27;19911;-69
2022/01/18 04:43:12;;;;;;;;;;;5.90;99.90;;;;;;5126369;27;20006;-72
2022/01/18 04:51:11;;;;;;;;;;;5.50;99.90;;;;;;5130943;27;19912;-72
2022/01/18 04:53:39;;;;;;;;;;;5.50;99.90;;;;;;5130635;27;19980;-71
2022/01/18 04:56:10;;;;;;;;;;;5.40;99.90;;;;;;5125758;27;19926;-74
2022/01/18 04:58:45;;;;;;;;;;;5.40;99.90;;;;;;5124543;27;19966;-73
2022/01/18 05:01:12;;;;;;;;;;;5.40;99.90;;;;;;5120225;27;19964;-74
2022/01/18 05:03:38;;;;;;;;;;;5.40;99.90;;;;;;5121702;27;19915;-71
2022/01/18 05:06:13;;;;;;;;;;;5.40;99.90;;;;;;5118702;27;19912;-74
2022/01/18 05:08:41;;;;;;;;;;;5.30;99.90;;;;;;5127188;27;20002;-72
2022/01/18 05:11:11;;;;;;;;;;;5.30;99.90;;;;;;5131732;27;20389;-73
2022/01/18 05:13:56;;;;;;;;;;;5.30;99.90;;;;;;5126086;27;19956;-70
2022/01/18 05:16:41;;;;;;;;;;;5.30;99.90;;;;;;5127505;27;20353;-70
2022/01/18 05:24:21;;;;;;;;;;;5.10;99.90;;;;;;5116038;27;20014;-71
2022/01/18 05:26:47;;;;;;;;;;;5.00;99.90;;;;;;5129059;27;19951;-72
2022/01/18 05:29:12;;;;;;;;;;;4.90;99.90;;;;;;5130275;27;19963;-71
2022/01/18 05:31:38;;;;;;;;;;;4.90;99.90;;;;;;5126884;27;19912;-71
2022/01/18 05:34:04;;;;;;;;;;;4.90;99.90;;;;;;5126388;27;19963;-72
2022/01/18 05:36:31;;;;;;;;;;;4.80;99.90;;;;;;5134645;27;19918;-70
2022/01/18 05:38:56;;;;;;;;;;;4.70;99.90;;;;;;5124345;27;20124;-72
2022/01/18 05:41:22;;;;;;;;;;;4.70;99.90;;;;;;5125053;27;19935;-74
2022/01/18 05:43:47;;;;;;;;;;;4.60;99.90;;;;;;5127162;27;19911;-70
2022/01/18 05:46:13;;;;;;;;;;;4.60;99.90;;;;;;5132738;27;19916;-72
2022/01/18 05:48:39;;;;;;;;;;;4.60;99.90;;;;;;5126554;27;20485;-72
2022/01/18 05:51:05;;;;;;;;;;;4.70;99.90;;;;;;5127135;27;19931;-71
2022/01/18 05:53:31;;;;;;;;;;;4.70;99.90;;;;;;5120669;27;19907;-71
2022/01/18 05:55:57;;;;;;;;;;;4.70;99.90;;;;;;5123114;27;19945;-71
2022/01/18 05:58:23;;;;;;;;;;;4.70;99.90;;;;;;5130372;27;19914;-72
2022/01/18 06:00:55;;;;;;;;;;;4.50;99.90;;;;;;5125215;27;20011;-73
2022/01/18 06:03:30;;;;;;;;;;;4.40;99.90;;;;;;5131026;27;19915;-73
2022/01/18 06:08:40;;;;;;;;;;;4.50;99.90;;;;;;5126192;27;19919;-71
2022/01/18 06:11:06;;;;;;;;;;;4.40;99.90;;;;;;5132149;27;19915;-73
2022/01/18 06:13:31;;;;;;;;;;;4.40;99.90;;;;;;5132057;27;19907;-72
2022/01/18 06:15:57;;;;;;;;;;;4.50;99.90;;;;;;5114663;27;19980;-70
2022/01/18 06:18:22;;;;;;;;;;;4.50;99.90;;;;;;5126306;27;20314;-71
2022/01/18 06:20:48;;;;;;;;;;;4.50;99.90;;;;;;5128518;27;19959;-71
2022/01/18 06:23:14;;;;;;;;;;;4.50;99.90;;;;;;5121628;27;20373;-70
2022/01/18 06:25:40;;;;;;;;;;;4.60;99.90;;;;;;5113088;27;19914;-71
2022/01/18 06:28:06;;;;;;;;;;;4.60;99.90;;;;;;5129406;27;19919;-71
2022/01/18 06:30:31;;;;;;;;;;;4.60;99.90;;;;;;5126253;27;20276;-72
2022/01/18 06:32:57;;;;;;;;;;;4.80;99.90;;;;;;5124843;27;20267;-72
2022/01/18 06:35:22;;;;;;;;;;;4.80;99.90;;;;;;5115998;27;19942;-72
2022/01/18 06:37:48;;;;;;;;;;;5.00;99.90;;;;;;5129956;27;19912;-72
2022/01/18 06:40:14;;;;;;;;;;;5.10;99.90;;;;;;5122269;27;20379;-70
2022/01/18 06:42:39;;;;;;;;;;;5.30;99.90;;;;;;5131055;27;19919;-71
2022/01/18 06:45:06;;;;;;;;;;;5.40;99.90;;;;;;5117734;27;19923;-71
2022/01/18 06:47:31;;;;;;;;;;;5.50;99.90;;;;;;5126130;27;19918;-71
2022/01/18 06:49:57;;;;;;;;;;;5.60;99.90;;;;;;5122380;27;19911;-69
2022/01/18 06:52:22;;;;;;;;;;;5.70;99.90;;;;;;5130774;27;19977;-70
2022/01/18 06:54:48;;;;;;;;;;;5.70;99.90;;;;;;5117228;27;19941;-70
2022/01/18 06:57:14;;;;;;;;;;;5.80;99.90;;;;;;5132675;27;19911;-70
2022/01/18 06:59:39;;;;;;;;;;;5.80;99.90;;;;;;5123799;27;19908;-69
2022/01/18 07:02:05;;;;;;;;;;;5.80;99.90;;;;;;5121714;27;20381;-70
2022/01/18 07:04:40;;;;;;;;;;;5.80;99.90;;;;;;5129785;27;20475;-71
2022/01/18 07:07:06;;;;;;;;;;;5.90;99.90;;;;;;5114552;27;19915;-69
2022/01/18 07:09:32;;;;;;;;;;;5.90;99.90;;;;;;5119747;27;19923;-69
2022/01/18 07:11:59;;;;;;;;;;;5.90;99.90;;;;;;5119210;28;20369;-70
2022/01/18 07:14:25;;;;;;;;;;;5.90;99.90;;;;;;5120225;27;19943;-69
2022/01/18 07:16:50;;;;;;;;;;;5.90;99.90;;;;;;5117758;28;19951;-68
2022/01/18 07:19:16;;;;;;;;;;;6.10;99.90;;;;;;5117157;28;19911;-69
2022/01/18 07:21:42;;;;;;;;;;;6.10;99.90;;;;;;5114024;28;19912;-68
2022/01/18 07:24:24;;;;;;;;;;;6.10;99.90;;;;;;5119848;28;19918;-70
2022/01/18 07:26:50;;;;;;;;;;;6.10;99.90;;;;;;5123907;27;20517;-70
2022/01/18 07:29:16;;;;;;;;;;;6.30;99.90;;;;;;5122546;27;20010;-69
2022/01/18 07:31:41;;;;;;;;;;;6.40;99.90;;;;;;5116465;28;20002;-69
2022/01/18 07:34:07;;;;;;;;;;;6.50;99.90;;;;;;5117219;28;19911;-69
2022/01/18 07:36:33;;;;;;;;;;;6.70;99.90;;;;;;5118894;28;20273;-69
2022/01/18 07:38:58;;;;;;;;;;;6.80;99.90;;;;;;5120700;28;20007;-68
2022/01/18 07:41:24;;;;;;;;;;;6.90;99.90;;;;;;5121198;28;20332;-69
2022/01/18 07:43:49;;;;;;;;;;;6.90;99.90;;;;;;5118451;28;19962;-70
2022/01/18 07:46:15;;;;;;;;;;;7.00;99.90;;;;;;5119103;28;19931;-70
2022/01/18 07:48:40;;;;;;;;;;;7.00;99.90;;;;;;5122509;28;19919;-69
2022/01/18 07:51:06;;;;;;;;;;;7.10;99.90;;;;;;5123158;27;20260;-69
2022/01/18 07:53:32;;;;;;;;;;;7.00;99.90;;;;;;5120306;28;19911;-70
2022/01/18 07:55:57;;;;;;;;;;;7.20;99.90;;;;;;5118898;28;19929;-70
2022/01/18 07:58:23;;;;;;;;;;;7.20;99.90;;;;;;5120249;27;19915;-69
2022/01/18 08:00:49;;;;;;;;;;;7.20;99.90;;;;;;5124175;28;19985;-68
2022/01/18 08:03:15;;;;;;;;;;;7.20;99.90;;;;;;5122645;28;20108;-69
2022/01/18 08:05:40;;;;;;;;;;;7.30;99.90;;;;;;5120930;28;19955;-69
2022/01/18 08:08:06;;;;;;;;;;;7.40;99.90;;;;;;5117827;28;19951;-73
2022/01/18 08:10:32;;;;;;;;;;;7.50;99.90;;;;;;5121550;28;19919;-70
2022/01/18 08:13:01;;;;;;;;;;;7.50;99.90;;;;;;5124923;28;19998;-70
2022/01/18 08:15:29;;;;;;;;;;;7.60;99.90;;;;;;5120315;28;21498;-70
2022/01/18 08:17:55;;;;;;;;;;;7.70;99.90;;;;;;5123502;27;19923;-70
2022/01/18 08:20:21;;;;;;;;;;;7.80;99.90;;;;;;5130695;27;19912;-69
2022/01/18 08:22:46;;;;;;;;;;;7.80;99.90;;;;;;5129822;27;19975;-70
2022/01/18 08:25:13;;;;;;;;;;;7.90;99.90;;;;;;5118765;27;20288;-71
2022/01/18 08:27:39;;;;;;;;;;;7.90;99.90;;;;;;5126929;27;20501;-72
2022/01/18 08:30:06;;;;;;;;;;;8.00;99.90;;;;;;5122186;27;19912;-72
2022/01/18 08:32:32;;;;;;;;;;;8.10;99.90;;;;;;5120470;27;20346;-70
2022/01/18 08:34:58;;;;;;;;;;;8.20;99.90;;;;;;5122209;27;19934;-71
2022/01/18 08:37:23;;;;;;;;;;;8.40;99.90;;;;;;5120391;27;20007;-69
2022/01/18 08:39:49;;;;;;;;;;;8.50;99.90;;;;;;5127720;27;19918;-69
2022/01/18 08:42:15;;;;;;;;;;;8.60;99.90;;;;;;5114312;27;19955;-71
2022/01/18 08:44:43;;;;;;;;;;;8.70;99.90;;;;;;5118313;27;20037;-69
2022/01/18 08:47:13;;;;;;;;;;;8.80;99.90;;;;;;5124203;27;20006;-70
2022/01/18 08:49:39;;;;;;;;;;;8.80;99.90;;;;;;5131694;27;19915;-68
2022/01/18 08:52:04;;;;;;;;;;;8.70;99.90;;;;;;5123241;27;19919;-69
2022/01/18 08:54:30;;;;;;;;;;;8.80;99.90;;;;;;5124150;27;19912;-70
2022/01/18 08:56:56;;;;;;;;;;;8.80;99.90;;;;;;5127890;27;20392;-70
2022/01/18 08:59:22;;;;;;;;;;;8.90;99.90;;;;;;5136793;27;19914;-69
2022/01/18 09:01:48;;;;;;;;;;;9.00;99.90;;;;;;5123702;27;20357;-69
2022/01/18 09:04:13;;;;;;;;;;;9.00;99.90;;;;;;5134010;27;20013;-70
2022/01/18 09:06:40;;;;;;;;;;;9.10;99.90;;;;;;5127440;27;19920;-66
2022/01/18 09:09:07;;;;;;;;;;;9.10;99.90;;;;;;5116467;27;19926;-70
2022/01/18 09:11:33;;;;;;;;;;;9.10;99.90;;;;;;5129829;27;20365;-70
2022/01/18 09:13:58;;;;;;;;;;;9.10;99.90;;;;;;5124773;27;19919;-69
2022/01/18 09:16:24;;;;;;;;;;;9.20;99.90;;;;;;5123234;27;20006;-69
2022/01/18 09:18:50;;;;;;;;;;;9.40;99.90;;;;;;5127437;27;19922;-69
2022/01/18 09:21:16;;;;;;;;;;;9.40;99.90;;;;;;5131768;27;19911;-69
2022/01/18 09:23:42;;;;;;;;;;;9.50;99.90;;;;;;5118205;27;20007;-67
2022/01/18 09:26:08;;;;;;;;;;;9.50;99.90;;;;;;5118347;27;20375;-70
2022/01/18 09:28:34;;;;;;;;;;;9.60;99.90;;;;;;5134195;27;19915;-69
2022/01/18 09:31:00;;;;;;;;;;;9.60;99.90;;;;;;5120564;27;19918;-70
2022/01/18 09:33:26;;;;;;;;;;;9.90;99.90;;;;;;5124157;27;19915;-64
2022/01/18 09:35:51;;;;;;;;;;;10.10;99.90;;;;;;5113704;27;19912;-62
2022/01/18 09:38:17;;;;;;;;;;;10.20;99.90;;;;;;5126657;27;19911;-63
2022/01/18 09:40:45;;;;;;;;;;;10.20;99.90;;;;;;5132739;27;20018;-65
2022/01/18 09:43:13;;;;;;;;;;;10.20;99.90;;;;;;5132001;27;19912;-65
2022/01/18 09:45:41;;;;;;;;;;;10.20;99.90;;;;;;5130409;27;19911;-64
2022/01/18 09:48:07;;;;;;;;;;;10.30;99.90;;;;;;5129726;27;20002;-64
2022/01/18 09:50:34;;;;;;;;;;;10.20;99.90;;;;;;5123419;27;19926;-65
2022/01/18 09:53:00;;;;;;;;;;;10.30;99.90;;;;;;5127093;27;19919;-68
2022/01/18 09:55:27;;;;;;;;;;;10.40;99.90;;;;;;5131828;27;19911;-63
2022/01/18 09:57:53;;;;;;;;;;;10.60;99.90;;;;;;5126317;27;20276;-68
2022/01/18 10:00:20;;;;;;;;;;;10.60;99.90;;;;;;5130760;27;19934;-68
2022/01/18 10:02:46;;;;;;;;;;;10.60;99.90;;;;;;5127206;27;19919;-67
2022/01/18 10:05:22;;;;;;;;;;;10.60;99.90;;;;;;5122187;27;20373;-66
2022/01/18 10:07:59;;;;;;;;;;;10.60;99.90;;;;;;5125436;27;19912;-66
2022/01/18 10:10:54;;;;;;;;;;;10.60;99.90;;;;;;5135278;27;19916;-67
2022/01/18 10:13:19;;;;;;;;;;;10.70;99.90;;;;;;5119581;27;19911;-68
2022/01/18 10:16:03;;;;;;;;;;;10.80;99.90;;;;;;5130579;27;20207;-68
2022/01/18 10:18:34;;;;;;;;;;;10.90;99.90;;;;;;5131334;27;19982;-67
2022/01/18 10:21:00;;;;;;;;;;;10.80;99.90;;;;;;5132250;27;20361;-68
2022/01/18 10:23:25;;;;;;;;;;;10.90;99.90;;;;;;5117491;27;19916;-68
2022/01/18 10:25:52;;;;;;;;;;;11.00;99.90;;;;;;5121536;27;19911;-69
2022/01/18 10:28:31;;;;;;;;;;;11.00;99.90;;;;;;5122578;27;19916;-67
2022/01/18 10:31:00;;;;;;;;;;;11.00;99.90;;;;;;5116871;27;19912;-64
2022/01/18 10:33:28;;;;;;;;;;;11.10;99.90;;;;;;5129219;27;19959;-67
2022/01/18 10:36:09;;;;;;;;;;;11.20;99.90;;;;;;5126644;27;19947;-67
2022/01/18 10:38:35;;;;;;;;;;;11.20;99.90;;;;;;5133583;27;19907;-68
2022/01/18 10:41:19;;;;;;;;;;;11.10;99.90;;;;;;5127012;27;19999;-68
2022/01/18 10:44:00;;;;;;;;;;;11.30;99.90;;;;;;5127561;27;19908;-68
2022/01/18 10:46:32;;;;;;;;;;;11.30;99.90;;;;;;5117284;27;19915;-69
2022/01/18 10:48:57;;;;;;;;;;;11.30;99.90;;;;;;5126756;27;19915;-65
2022/01/18 10:51:35;;;;;;;;;;;11.30;99.90;;;;;;5125910;27;19927;-68
2022/01/18 10:54:10;;;;;;;;;;;11.30;99.90;;;;;;5118837;27;19915;-69
2022/01/18 10:56:40;;;;;;;;;;;11.40;99.90;;;;;;5130533;27;20014;-68
2022/01/18 10:59:06;;;;;;;;;;;11.40;99.90;;;;;;5132528;27;19986;-67
2022/01/18 11:01:32;;;;;;;;;;;11.40;99.90;;;;;;5122907;27;19973;-66
2022/01/18 11:04:11;;;;;;;;;;;11.50;99.90;;;;;;5128256;27;19915;-67
2022/01/18 11:06:38;;;;;;;;;;;11.50;99.90;;;;;;5131518;27;19959;-68
2022/01/18 11:09:11;;;;;;;;;;;11.50;99.90;;;;;;5132055;27;19915;-66
2022/01/18 11:11:55;;;;;;;;;;;11.60;99.90;;;;;;5119980;27;19908;-67
2022/01/18 11:14:23;;;;;;;;;;;11.70;99.90;;;;;;5119870;28;19923;-67
2022/01/18 11:16:50;;;;;;;;;;;11.70;99.90;;;;;;5115154;28;20301;-68
2022/01/18 11:21:52;;;;;;;;;;;11.90;99.90;;;;;;5117771;28;19927;-67
2022/01/18 11:24:18;;;;;;;;;;;12.10;99.90;;;;;;5117863;28;19907;-67
2022/01/18 11:26:45;;;;;;;;;;;12.10;99.90;;;;;;5127225;28;20144;-68
2022/01/18 11:29:12;;;;;;;;;;;12.10;99.90;;;;;;5130587;27;20137;-65
2022/01/18 11:31:38;;;;;;;;;;;12.20;99.90;;;;;;5130145;28;19908;-68
2022/01/18 11:34:05;;;;;;;;;;;12.20;99.90;;;;;;5130837;28;19911;-69
2022/01/18 11:36:33;;;;;;;;;;;12.10;99.90;;;;;;5127890;28;19915;-67
2022/01/18 11:39:04;;;;;;;;;;;12.20;99.90;;;;;;5123280;28;19915;-68
2022/01/18 11:41:35;;;;;;;;;;;12.30;99.90;;;;;;5112184;28;19915;-65
2022/01/18 11:44:27;;;;;;;;;;;12.30;99.90;;;;;;5129313;27;19965;-68
2022/01/18 11:46:55;;;;;;;;;;;12.30;99.90;;;;;;5123183;27;19908;-66
2022/01/18 11:49:24;;;;;;;;;;;12.30;99.90;;;;;;5129794;28;19935;-68
2022/01/18 11:51:57;;;;;;;;;;;12.40;99.90;;;;;;5131474;27;19969;-64
2022/01/18 11:57:19;;;;;;;;;;;12.40;99.90;;;;;;5133956;27;19912;-68
2022/01/18 11:59:45;;;;;;;;;;;12.50;99.90;;;;;;5131511;27;20025;-68
2022/01/18 12:02:11;;;;;;;;;;;12.60;99.90;;;;;;5132892;27;20444;-66
2022/01/18 12:07:06;;;;;;;;;;;12.80;99.90;;;;;;5115419;27;19964;-68
2022/01/18 12:09:42;;;;;;;;;;;12.70;99.90;;;;;;5125313;27;19939;-67
2022/01/18 12:12:26;;;;;;;;;;;12.60;99.90;;;;;;5127421;27;19912;-66
2022/01/18 12:14:52;;;;;;;;;;;12.60;99.90;;;;;;5130015;27;20277;-67
2022/01/18 12:17:17;;;;;;;;;;;12.70;99.90;;;;;;5128483;27;19912;-67
2022/01/18 12:19:47;;;;;;;;;;;12.80;99.90;;;;;;5129650;27;20621;-67
2022/01/18 12:22:13;;;;;;;;;;;13.00;99.90;;;;;;5128541;27;19912;-69
2022/01/18 12:24:45;;;;;;;;;;;13.00;99.90;;;;;;5130217;27;19912;-69
2022/01/18 12:27:31;;;;;;;;;;;13.10;99.90;;;;;;5127781;27;19919;-67
2022/01/18 12:30:40;;;;;;;;;;;13.10;99.90;;;;;;5131544;27;19920;-66
2022/01/18 12:33:15;;;;;;;;;;;13.10;99.90;;;;;;5130438;27;20002;-68
2022/01/18 12:35:41;;;;;;;;;;;13.20;99.90;;;;;;5132988;27;20130;-68
2022/01/18 12:38:10;;;;;;;;;;;13.40;99.90;;;;;;5128050;27;19966;-67
2022/01/18 12:40:42;;;;;;;;;;;13.30;99.90;;;;;;5124815;27;19922;-68
2022/01/18 12:45:36;;;;;;;;;;;13.40;99.90;;;;;;5131058;27;20325;-67
2022/01/18 12:48:05;;;;;;;;;;;13.30;99.90;;;;;;5130602;27;19998;-68
2022/01/18 12:50:33;;;;;;;;;;;13.20;99.90;;;;;;5132138;27;20015;-69
2022/01/18 12:52:59;;;;;;;;;;;13.10;99.90;;;;;;5124300;27;19912;-67
2022/01/18 12:55:26;;;;;;;;;;;13.00;99.90;;;;;;5130292;27;19933;-67
2022/01/18 12:58:00;;;;;;;;;;;12.90;99.90;;;;;;5127167;27;19998;-68
2022/01/18 13:00:26;;;;;;;;;;;12.70;99.90;;;;;;5130606;27;19915;-68
2022/01/18 13:02:56;;;;;;;;;;;12.70;99.90;;;;;;5129863;27;20384;-68
2022/01/18 13:05:21;;;;;;;;;;;12.60;99.90;;;;;;5130932;27;19971;-67
2022/01/18 13:07:51;;;;;;;;;;;12.60;99.90;;;;;;5124903;27;19997;-67
2022/01/18 13:10:17;;;;;;;;;;;12.30;99.90;;;;;;5130273;27;19919;-70
2022/01/18 13:12:44;;;;;;;;;;;12.00;99.90;;;;;;5123232;27;19931;-67
2022/01/18 13:15:10;;;;;;;;;;;11.90;99.90;;;;;;5128141;27;19919;-65
2022/01/18 13:23:19;;;;;;;;;;;11.70;99.90;;;;;;5132213;27;19940;-69
2022/01/18 13:25:51;;;;;;;;;;;11.60;99.90;;;;;;5140116;27;19998;-68
2022/01/18 13:28:18;;;;;;;;;;;11.50;99.90;;;;;;5121748;27;19915;-68
2022/01/18 13:30:43;;;;;;;;;;;11.40;99.90;;;;;;5123611;27;20361;-68
2022/01/18 13:33:11;;;;;;;;;;;11.40;99.90;;;;;;5126961;27;19994;-66
2022/01/18 13:35:37;;;;;;;;;;;11.50;99.90;;;;;;5126602;27;19919;-67
2022/01/18 13:38:03;;;;;;;;;;;11.50;99.90;;;;;;5127925;27;19912;-68
2022/01/18 13:40:30;;;;;;;;;;;11.50;99.90;;;;;;5127804;27;19912;-67
2022/01/18 13:43:04;;;;;;;;;;;11.40;99.90;;;;;;5125502;27;19911;-68
2022/01/18 13:45:32;;;;;;;;;;;11.40;99.90;;;;;;5116871;27;20076;-66
2022/01/18 13:48:02;;;;;;;;;;;11.40;99.90;;;;;;5117253;27;20350;-69
2022/01/18 13:50:34;;;;;;;;;;;11.50;99.90;;;;;;5120755;27;19978;-68
2022/01/18 13:53:06;;;;;;;;;;;11.60;99.90;;;;;;5130476;27;20356;-66
2022/01/18 13:55:33;;;;;;;;;;;11.70;99.90;;;;;;5127104;27;19912;-67
2022/01/18 13:58:00;;;;;;;;;;;11.60;99.90;;;;;;5131273;27;19911;-68
2022/01/18 14:00:28;;;;;;;;;;;11.60;99.90;;;;;;5132876;27;19919;-70
2022/01/18 14:02:54;;;;;;;;;;;11.70;99.90;;;;;;5109103;27;19915;-68
2022/01/18 14:05:21;;;;;;;;;;;11.70;99.90;;;;;;5133635;27;19911;-68
2022/01/18 14:07:48;;;;;;;;;;;11.70;99.90;;;;;;5131806;27;19954;-67
2022/01/18 14:10:21;;;;;;;;;;;11.60;99.90;;;;;;5107777;27;21914;-67
2022/01/18 14:12:47;;;;;;;;;;;11.60;99.90;;;;;;5123807;27;20381;-69
2022/01/18 14:15:15;;;;;;;;;;;11.60;99.90;;;;;;5125896;27;19919;-68
2022/01/18 14:17:40;;;;;;;;;;;11.60;99.90;;;;;;5132167;27;20302;-68
2022/01/18 14:20:08;;;;;;;;;;;11.60;99.90;;;;;;5134295;27;19952;-68
2022/01/18 14:22:36;;;;;;;;;;;11.50;99.90;;;;;;5121464;27;20373;-68
2022/01/18 14:25:05;;;;;;;;;;;11.30;99.90;;;;;;5125823;27;19912;-67
2022/01/18 14:27:34;;;;;;;;;;;11.10;99.90;;;;;;5132010;27;19911;-70
2022/01/18 14:30:01;;;;;;;;;;;11.00;99.90;;;;;;5129479;27;19919;-69
2022/01/18 14:32:39;;;;;;;;;;;10.90;99.90;;;;;;5129936;27;19911;-67
2022/01/18 14:35:05;;;;;;;;;;;10.80;99.90;;;;;;5128347;27;19911;-69
2022/01/18 14:37:35;;;;;;;;;;;10.70;99.90;;;;;;5127655;27;19957;-68
2022/01/18 14:40:03;;;;;;;;;;;10.60;99.90;;;;;;5132058;27;19911;-68
2022/01/18 14:42:33;;;;;;;;;;;10.50;99.90;;;;;;5128754;27;19973;-65
2022/01/18 14:47:26;;;;;;;;;;;10.40;99.90;;;;;;5125359;27;19941;-65
2022/01/18 14:50:01;;;;;;;;;;;10.30;99.90;;;;;;5125450;27;19959;-67
2022/01/18 14:52:47;;;;;;;;;;;10.30;99.90;;;;;;5130644;27;19915;-69
2022/01/18 14:55:19;;;;;;;;;;;10.30;99.90;;;;;;5127498;27;20329;-68
2022/01/18 14:57:45;;;;;;;;;;;10.20;99.90;;;;;;5129110;27;19919;-69
2022/01/18 15:00:12;;;;;;;;;;;10.20;99.90;;;;;;5131421;27;20613;-69
2022/01/18 15:02:38;;;;;;;;;;;10.10;99.90;;;;;;5116786;27;20280;-67
2022/01/18 15:05:05;;;;;;;;;;;10.00;99.90;;;;;;5122073;27;19998;-67
2022/01/18 15:07:30;;;;;;;;;;;9.90;99.90;;;;;;5127657;27;19955;-68
2022/01/18 15:09:57;;;;;;;;;;;9.80;99.90;;;;;;5129434;28;20407;-68
2022/01/18 15:12:23;;;;;;;;;;;9.70;99.90;;;;;;5121895;27;20044;-69
2022/01/18 15:14:49;;;;;;;;;;;9.70;99.90;;;;;;5123943;28;20017;-68
2022/01/18 15:17:16;;;;;;;;;;;9.60;99.90;;;;;;5126609;27;20611;-69
2022/01/18 15:19:42;;;;;;;;;;;9.50;99.90;;;;;;5123965;28;19915;-67
2022/01/18 15:22:09;;;;;;;;;;;9.50;99.90;;;;;;5120934;28;20003;-67
2022/01/18 15:24:35;;;;;;;;;;;9.50;99.90;;;;;;5124013;28;19915;-67
2022/01/18 15:27:02;;;;;;;;;;;9.40;99.90;;;;;;5119539;27;19987;-69
2022/01/18 15:29:27;;;;;;;;;;;9.40;99.90;;;;;;5129081;27;19915;-69
2022/01/18 15:31:56;;;;;;;;;;;9.30;99.90;;;;;;5123540;27;19946;-67
2022/01/18 15:34:23;;;;;;;;;;;9.20;99.90;;;;;;5126888;27;19960;-69
2022/01/18 15:36:48;;;;;;;;;;;9.20;99.90;;;;;;5120414;27;19916;-73
2022/01/18 15:39:14;;;;;;;;;;;9.30;99.90;;;;;;5126669;27;19994;-69
2022/01/18 15:41:41;;;;;;;;;;;9.40;99.90;;;;;;5130108;27;19972;-70
2022/01/18 15:44:08;;;;;;;;;;;9.40;99.90;;;;;;5128875;27;19958;-66
2022/01/18 15:46:34;;;;;;;;;;;9.40;99.90;;;;;;5134536;27;19912;-69
2022/01/18 15:48:59;;;;;;;;;;;9.30;99.90;;;;;;5137347;27;19919;-73